Etusivu
METAR-TAF:

METAR-TAF

Lentoasemat :

Sandnessjøen, Norja

Leveyspiiri: 65-58N, Pituuspiiri: 012-28E, korkeus merenpinnasta: 1 m

Tämänhetkinen sää

Tämä raportti tehtiin 8 tuntia ja 30 minuuttia sitten, kello 18.50 UTC
Tuuli 22 kn lounaasta
Lämpötila 11°C
Kosteus 94%
Ilmanpaine 1004 hPa
Näkyvyys 10 km tai enemmän
Muutamia pilviä 1000 ft:n korkeudessa, Kasvava cumulus-pilvi.
Hajanaisia pilviä 1200 ft:n korkeudessa
Hajonneita pilviä 1800 ft:n korkeudessa
heikkoja vesikuuroja

METAR: ENST 191850Z 22022KT 9999 -SHRA FEW010TCU SCT012 BKN018 11/10 Q1004 RMK WIND 300FT 24023G35KT

Aika: 05:20 (03:20 UTC)


TAF: puuttuu

Säähavainnot ja -ennusteet yli 4000 lentoasemalta (METAR- ja TAF-raportit).

Käytössä olevat sääasemat on merkitty karttaan keltaisilla ja punaisilla pisteillä.

Aseta hiiri pisteen päälle nähdäksesi sääaseman nimen.

Klikkaa sitten nähdäksesi säähavainnot ja -ennusteet.

Kartan vaihtaminen: klikkaa mustalla rastilla varustettuja vihreitä pisteitä, niin voit zoomata sisään; viivalla varustettua vihreää pistettä, niin voit zoomata ulos tai vihreitä nuolia, niin pääset viereisille kartoille.


METAR-TAF: